Time;durP1;ratioP1;P1;durP2;ratioP2;P2;SDS_P1;SDS_P2;PMS_P1;PMS_P2;Temp;Humidity;BMP_temperature;BMP_pressure;BME280_temperature;BME280_humidity;BME280_pressure;Samples;Min_cycle;Max_cycle;Signal;HPM_P1;HPM_P2
2022/06/22 00:02:08;;;;;;;15.63;5.50;;;;;;;12.57;75.56;98454.20;2236663;79;21006;-78
2022/06/22 00:05:09;;;;;;;7.83;4.67;;;;;;;12.49;74.85;98454.66;2236931;79;21007;-79
2022/06/22 00:08:09;;;;;;;8.65;4.65;;;;;;;12.43;75.96;98456.84;2236590;80;21291;-79
2022/06/22 00:11:09;;;;;;;7.40;4.50;;;;;;;12.40;75.68;98468.63;2236371;79;20920;-80
2022/06/22 00:14:10;;;;;;;6.70;4.95;;;;;;;12.37;75.67;98471.69;2236557;79;20905;-78
2022/06/22 00:17:10;;;;;;;7.37;4.20;;;;;;;12.34;75.79;98471.69;2236235;79;21347;-79
2022/06/22 00:20:11;;;;;;;5.20;4.70;;;;;;;12.30;76.07;98464.28;2236384;79;20905;-79
2022/06/22 00:23:11;;;;;;;11.55;5.12;;;;;;;12.26;75.81;98466.90;2236844;80;20916;-79
2022/06/22 00:26:11;;;;;;;6.58;4.55;;;;;;;12.22;76.16;98473.88;2236746;79;20952;-80
2022/06/22 00:29:12;;;;;;;9.23;5.80;;;;;;;12.17;76.11;98471.70;2236401;79;20959;-80
2022/06/22 00:32:12;;;;;;;9.53;5.25;;;;;;;12.13;76.19;98472.11;2236720;79;20881;-79
2022/06/22 00:35:13;;;;;;;6.70;4.87;;;;;;;12.11;76.37;98468.63;2236757;79;20948;-80
2022/06/22 00:38:13;;;;;;;10.15;6.33;;;;;;;12.06;76.45;98472.98;2236544;79;20986;-78
2022/06/22 00:41:13;;;;;;;9.30;5.72;;;;;;;12.02;76.60;98469.06;2236373;79;20943;-80
2022/06/22 00:44:14;;;;;;;8.55;5.47;;;;;;;11.98;76.67;98471.23;2236602;79;20998;-79
2022/06/22 00:47:14;;;;;;;8.88;5.28;;;;;;;11.96;76.95;98461.21;2225082;78;21350;-78
2022/06/22 00:50:15;;;;;;;11.25;5.28;;;;;;;11.93;76.88;98459.91;2222527;79;20976;-78
2022/06/22 00:53:15;;;;;;;53.52;7.67;;;;;;;11.84;76.37;98452.92;2216018;79;20995;-78
2022/06/22 00:56:15;;;;;;;9.43;4.87;;;;;;;11.65;76.26;98462.46;2209342;81;20909;-79
2022/06/22 00:59:16;;;;;;;7.83;5.17;;;;;;;11.46;76.40;98457.64;2209244;79;20995;-79
2022/06/22 01:02:16;;;;;;;8.15;5.58;;;;;;;11.32;76.52;98466.31;2209169;79;20894;-78
2022/06/22 01:05:17;;;;;;;11.15;6.12;;;;;;;11.20;76.94;98472.77;2209422;79;20961;-79
2022/06/22 01:08:17;;;;;;;12.43;6.15;;;;;;;11.14;77.93;98489.30;2209201;79;20913;-79
2022/06/22 01:14:37;;;;;;;11.48;7.60;;;;;;;11.17;78.67;98488.88;2209522;81;20925;-80
2022/06/22 01:17:37;;;;;;;14.45;7.28;;;;;;;11.21;78.85;98484.97;2209529;79;20928;-80
2022/06/22 01:20:37;;;;;;;8.00;6.70;;;;;;;11.23;79.17;98478.01;2209738;79;20987;-79
2022/06/22 01:23:38;;;;;;;11.83;7.00;;;;;;;11.24;79.43;98479.32;2209579;79;20921;-79
2022/06/22 01:26:39;;;;;;;8.00;6.90;;;;;;;11.17;78.33;98478.42;2209774;79;20924;-79
2022/06/22 01:29:39;;;;;;;11.60;7.67;;;;;;;11.11;78.11;98485.37;2209423;78;21436;-80
2022/06/22 01:32:39;;;;;;;9.05;6.22;;;;;;;11.03;78.22;98487.08;2209338;79;20925;-81
2022/06/22 01:35:39;;;;;;;7.12;5.30;;;;;;;10.99;78.76;98490.11;2209427;79;20961;-81
2022/06/22 01:38:40;;;;;;;8.30;5.67;;;;;;;11.01;79.25;98500.13;2209051;79;20885;-79
2022/06/22 01:41:40;;;;;;;9.27;5.57;;;;;;;11.02;79.45;98504.92;2209310;79;20917;-80
2022/06/22 01:44:41;;;;;;;7.87;6.15;;;;;;;11.05;79.81;98504.94;2209648;79;20921;-80
2022/06/22 01:47:41;;;;;;;6.40;5.55;;;;;;;11.08;79.52;98501.91;2209182;79;20988;-79
2022/06/22 01:50:41;;;;;;;5.58;5.08;;;;;;;11.04;78.91;98504.49;2209125;79;21003;-80
2022/06/22 01:53:42;;;;;;;11.38;6.97;;;;;;;10.96;78.82;98504.89;2209542;79;20960;-80
2022/06/22 01:56:42;;;;;;;11.15;7.00;;;;;;;10.94;79.44;98509.23;2209237;79;20913;-80
2022/06/22 01:59:43;;;;;;;7.37;6.62;;;;;;;10.96;79.67;98516.64;2209784;79;21403;-80
2022/06/22 02:02:43;;;;;;;21.50;7.00;;;;;;;10.95;79.30;98526.65;2209605;79;21031;-79
2022/06/22 02:05:44;;;;;;;14.47;6.73;;;;;;;10.92;79.75;98535.77;2210039;79;20995;-81
2022/06/22 02:08:44;;;;;;;13.60;8.63;;;;;;;10.92;79.48;98545.78;2209472;79;20948;-80
2022/06/22 02:11:44;;;;;;;12.58;9.28;;;;;;;10.89;80.64;98554.91;2209563;79;20960;-81
2022/06/22 02:14:45;;;;;;;12.82;7.00;;;;;;;10.93;80.88;98557.10;2210220;79;20921;-80
2022/06/22 02:17:45;;;;;;;8.33;6.37;;;;;;;10.93;81.32;98550.58;2210251;79;21256;-79
2022/06/22 02:20:46;;;;;;;9.70;5.42;;;;;;;10.96;81.27;98555.38;2209959;79;20954;-81
2022/06/22 02:23:46;;;;;;;10.95;6.50;;;;;;;10.97;81.05;98560.17;2209370;79;20960;-81
2022/06/22 02:26:46;;;;;;;25.25;7.58;;;;;;;10.96;81.10;98559.73;2209790;79;20972;-81
2022/06/22 02:29:47;;;;;;;9.98;6.97;;;;;;;10.93;80.90;98553.19;2209443;78;21347;-81
2022/06/22 02:32:47;;;;;;;10.38;6.30;;;;;;;10.91;80.99;98561.44;2209243;79;20901;-81
2022/06/22 02:35:48;;;;;;;7.45;6.75;;;;;;;10.87;80.96;98569.69;2209632;79;20928;-80
2022/06/22 02:38:48;;;;;;;16.73;6.67;;;;;;;10.81;81.02;98571.83;2210029;79;21293;-82
2022/06/22 02:45:07;;;;;;;10.63;7.42;;;;;;;10.82;81.19;98575.31;2209092;81;20984;-77
2022/06/22 02:48:08;;;;;;;8.37;7.30;;;;;;;10.82;81.46;98580.54;2235712;79;20955;-80
2022/06/22 02:51:08;;;;;;;8.78;6.37;;;;;;;10.81;81.54;98585.31;2236539;79;21019;-83
2022/06/22 02:54:09;;;;;;;8.35;5.83;;;;;;;10.83;82.10;98580.98;2236600;79;20904;-81
2022/06/22 02:57:09;;;;;;;9.30;6.40;;;;;;;11.09;81.66;98581.13;2236854;79;20900;-80
2022/06/22 03:00:09;;;;;;;9.50;6.65;;;;;;;11.05;81.63;98587.20;2236887;79;20976;-80
2022/06/22 03:03:10;;;;;;;10.70;7.45;;;;;;;11.01;81.21;98591.54;2236898;80;20920;-80
2022/06/22 03:06:10;;;;;;;8.08;6.15;;;;;;;10.99;81.30;98601.10;2236109;79;20963;-81
2022/06/22 03:09:11;;;;;;;13.83;6.37;;;;;;;10.97;81.18;98608.05;2235397;79;21046;-81
2022/06/22 03:12:11;;;;;;;8.10;6.08;;;;;;;10.94;81.50;98608.47;2236320;80;21343;-80
2022/06/22 03:15:11;;;;;;;9.33;6.00;;;;;;;10.92;81.57;98603.23;2236280;79;20999;-81
2022/06/22 03:18:12;;;;;;;12.47;8.08;;;;;;;10.91;81.78;98590.16;2236468;79;20983;-79
2022/06/22 03:21:12;;;;;;;8.33;6.03;;;;;;;10.92;81.29;98590.61;2235882;79;20943;-79
2022/06/22 03:24:13;;;;;;;7.53;6.23;;;;;;;10.89;80.84;98600.60;2235605;79;20967;-80
2022/06/22 03:27:13;;;;;;;10.05;6.72;;;;;;;10.88;80.92;98595.38;2234179;79;20983;-80
2022/06/22 03:30:13;;;;;;;13.58;6.47;;;;;;;10.84;80.78;98586.21;2234066;80;21042;-80
2022/06/22 03:33:14;;;;;;;13.10;6.60;;;;;;;10.86;80.91;98594.05;2235028;79;20978;-80
2022/06/22 03:36:14;;;;;;;19.67;6.53;;;;;;;10.93;81.06;98592.36;2234726;79;21020;-81
2022/06/22 03:39:15;;;;;;;12.60;6.20;;;;;;;11.05;80.95;98587.20;2235384;79;20967;-79
2022/06/22 03:42:15;;;;;;;30.37;6.37;;;;;;;11.12;80.55;98586.38;2233771;79;21430;-81
2022/06/22 03:45:15;;;;;;;8.73;6.20;;;;;;;11.11;80.46;98590.73;2233765;79;21034;-81
2022/06/22 03:48:16;;;;;;;13.15;7.62;;;;;;;11.21;81.21;98600.80;2208399;79;21303;-80
2022/06/22 03:51:16;;;;;;;9.95;6.62;;;;;;;11.37;81.37;98609.62;2207311;79;22097;-80
2022/06/22 03:54:17;;;;;;;15.08;6.05;;;;;;;11.48;81.12;98607.49;2206735;79;20960;-80
2022/06/22 03:57:17;;;;;;;10.08;5.85;;;;;;;11.64;80.83;98603.63;2207812;79;20980;-81
2022/06/22 04:00:17;;;;;;;9.53;6.83;;;;;;;11.80;80.69;98592.39;2206527;79;21039;-80
2022/06/22 04:03:18;;;;;;;11.60;5.30;;;;;;;12.02;80.18;98588.08;2207691;79;21409;-80
2022/06/22 04:06:18;;;;;;;11.85;5.67;;;;;;;12.34;80.07;98580.30;2206826;79;20979;-80
2022/06/22 04:09:19;;;;;;;7.97;5.80;;;;;;;12.63;79.35;98580.30;2206939;79;21061;-80
2022/06/22 04:12:19;;;;;;;11.33;5.60;;;;;;;12.87;78.52;98585.52;2206088;79;21427;-80
2022/06/22 04:15:19;;;;;;;120.47;9.83;;;;;;;13.13;77.91;98586.81;2206036;79;20996;-80
2022/06/22 04:18:20;;;;;;;8.30;4.85;;;;;;;13.41;77.58;98569.27;2207375;79;20979;-79
2022/06/22 04:21:20;;;;;;;8.38;4.92;;;;;;;13.68;77.03;98571.77;2207194;81;21026;-79
2022/06/22 04:24:21;;;;;;;6.42;4.60;;;;;;;13.94;75.84;98569.48;2205796;79;21023;-80
2022/06/22 04:27:21;;;;;;;5.53;4.25;;;;;;;14.20;75.28;98572.81;2205850;81;20953;-78
2022/06/22 04:30:21;;;;;;;9.05;4.55;;;;;;;14.46;74.60;98570.02;2204215;81;20991;-77
2022/06/22 04:33:22;;;;;;;6.60;4.60;;;;;;;14.63;73.08;98575.13;2204463;79;21019;-79
2022/06/22 04:36:23;;;;;;;9.80;4.35;;;;;;;14.71;72.46;98581.19;2203460;79;21363;-79
2022/06/22 04:39:23;;;;;;;6.28;4.58;;;;;;;14.88;72.60;98583.25;2203899;81;20956;-79
2022/06/22 04:42:23;;;;;;;7.10;4.47;;;;;;;15.07;71.75;98586.56;2204437;79;20928;-79
2022/06/22 04:45:24;;;;;;;5.25;4.40;;;;;;;15.26;70.94;98594.69;2204575;79;20995;-79
2022/06/22 04:48:24;;;;;;;6.42;4.37;;;;;;;15.39;70.70;98587.53;2204365;80;20976;-79
2022/06/22 04:51:24;;;;;;;5.45;4.00;;;;;;;15.56;70.16;98582.94;2204798;79;21012;-79
2022/06/22 04:54:25;;;;;;;5.75;4.62;;;;;;;15.72;69.30;98587.62;2205253;79;21000;-79
2022/06/22 04:57:25;;;;;;;15.90;4.55;;;;;;;15.82;69.04;98593.64;2204535;79;20988;-78
2022/06/22 05:00:26;;;;;;;6.20;4.20;;;;;;;15.94;68.06;98593.48;2203049;79;21039;-80
2022/06/22 05:03:26;;;;;;;20.27;5.03;;;;;;;15.92;68.36;98589.55;2203160;79;21513;-79
2022/06/22 05:06:27;;;;;;;15.30;4.53;;;;;;;16.16;68.24;98587.47;2204572;80;20964;-79
2022/06/22 05:09:27;;;;;;;8.58;3.98;;;;;;;16.31;67.17;98599.09;2204428;79;21043;-81
2022/06/22 05:12:27;;;;;;;5.35;3.72;;;;;;;16.41;66.76;98595.42;2205745;79;20980;-79
2022/06/22 05:15:28;;;;;;;7.10;3.90;;;;;;;16.55;66.43;98606.64;2206201;81;20933;-79
2022/06/22 05:18:28;;;;;;;6.75;4.30;;;;;;;16.67;65.79;98604.73;2205983;80;21362;-79
2022/06/22 05:21:29;;;;;;;5.58;3.75;;;;;;;16.76;65.11;98600.19;2205987;79;20948;-80
2022/06/22 05:24:29;;;;;;;4.40;3.72;;;;;;;16.88;65.46;98596.02;2205852;79;20972;-80
2022/06/22 05:27:30;;;;;;;7.42;3.98;;;;;;;17.06;64.81;98590.00;2206233;81;20944;-79
2022/06/22 05:30:30;;;;;;;3.95;3.55;;;;;;;17.21;64.31;98592.35;2204458;80;21415;-79
2022/06/22 05:33:33;;;;;;;4.37;3.67;;;;;;;17.40;64.43;98583.67;2203782;81;21012;-79
2022/06/22 05:36:34;;;;;;;6.37;4.40;;;;;;;17.62;63.95;98591.57;2204800;81;20933;-78
2022/06/22 05:39:34;;;;;;;5.00;3.83;;;;;;;17.76;63.29;98590.87;2204694;81;21419;-80
2022/06/22 05:42:34;;;;;;;5.25;3.20;;;;;;;17.97;62.74;98595.27;2206227;79;20995;-80
2022/06/22 05:45:38;;;;;;;7.03;3.05;;;;;;;18.12;62.37;98598.44;2205809;81;21000;-80
2022/06/22 05:48:38;;;;;;;5.65;3.15;;;;;;;18.30;62.17;98594.55;2229956;79;21438;-81
2022/06/22 05:51:38;;;;;;;3.47;3.02;;;;;;;18.37;61.37;98600.10;2232455;79;20990;-80
2022/06/22 05:54:40;;;;;;;8.05;2.85;;;;;;;18.55;61.21;98592.64;2232504;79;20939;-80
2022/06/22 05:57:40;;;;;;;5.40;2.60;;;;;;;18.69;59.62;98594.08;2233192;79;21251;-82
2022/06/22 06:00:40;;;;;;;3.50;3.12;;;;;;;18.86;58.83;98599.39;2233292;80;21600;-82
2022/06/22 06:03:40;;;;;;;5.10;3.35;;;;;;;18.96;57.43;98600.44;2232835;80;21021;-81
2022/06/22 06:06:41;;;;;;;5.65;2.52;;;;;;;18.96;57.88;98604.41;2233425;79;21003;-81
2022/06/22 06:09:41;;;;;;;8.30;2.80;;;;;;;19.07;58.49;98604.13;2233507;79;21288;-81
2022/06/22 06:12:41;;;;;;;2.83;2.50;;;;;;;19.17;57.87;98609.62;2232926;80;21744;-80
2022/06/22 06:15:42;;;;;;;4.22;2.87;;;;;;;19.29;57.47;98605.79;2232824;80;20927;-80
2022/06/22 06:18:42;;;;;;;3.15;2.85;;;;;;;19.42;57.15;98599.25;2233857;79;21441;-82
2022/06/22 06:21:43;;;;;;;3.87;2.90;;;;;;;19.55;56.79;98604.65;2233053;79;20999;-81
2022/06/22 06:27:34;;;;;;;5.05;2.75;;;;;;;19.49;56.29;98607.44;2233660;79;21010;-81
2022/06/22 06:27:43;;;;;;;2.65;2.40;;;;;;;19.64;55.73;98603.06;2233979;79;20935;-82
2022/06/22 06:30:44;;;;;;;4.67;2.80;;;;;;;19.65;53.45;98602.16;2234010;80;21050;-83
2022/06/22 06:33:44;;;;;;;5.53;3.90;;;;;;;19.76;53.36;98616.87;2234897;80;21590;-82
2022/06/22 06:36:45;;;;;;;3.55;2.80;;;;;;;19.76;54.09;98611.11;2233938;79;20951;-81
2022/06/22 06:39:45;;;;;;;3.52;2.33;;;;;;;19.96;53.74;98619.38;2233868;79;20991;-82
2022/06/22 06:42:46;;;;;;;3.95;3.22;;;;;;;20.11;53.13;98606.13;2233187;79;21320;-82
2022/06/22 06:45:46;;;;;;;2.95;1.95;;;;;;;20.31;52.75;98612.14;2233697;79;20954;-81
2022/06/22 06:48:46;;;;;;;3.60;2.60;;;;;;;20.30;51.78;98603.33;2209686;79;21063;-82
2022/06/22 06:51:50;;;;;;;3.05;2.40;;;;;;;20.41;52.31;98596.85;2206483;79;21023;-84
2022/06/22 06:54:50;;;;;;;4.62;2.17;;;;;;;20.56;51.47;98597.23;2206418;79;21881;-82
2022/06/22 06:57:51;;;;;;;8.63;2.45;;;;;;;20.69;50.85;98592.39;2206110;79;20944;-84
2022/06/22 07:00:51;;;;;;;2.40;2.20;;;;;;;20.87;50.20;98590.95;2206567;79;21063;-81
2022/06/22 07:03:51;;;;;;;2.62;2.42;;;;;;;21.06;50.12;98596.03;2206167;79;21087;-80
2022/06/22 07:06:52;;;;;;;2.60;2.40;;;;;;;21.25;50.10;98588.33;2205626;81;20897;-80
2022/06/22 07:09:52;;;;;;;2.55;2.35;;;;;;;21.47;48.94;98585.77;2206052;79;20988;-80
2022/06/22 07:12:53;;;;;;;4.97;2.40;;;;;;;21.49;46.04;98599.41;2205489;81;21380;-79
2022/06/22 07:15:53;;;;;;;2.20;2.00;;;;;;;21.29;47.17;98605.42;2205013;79;20949;-80
2022/06/22 07:18:54;;;;;;;6.17;2.72;;;;;;;21.25;48.03;98600.28;2206167;79;21414;-79
2022/06/22 07:21:54;;;;;;;2.92;2.62;;;;;;;21.24;47.29;98594.56;2206353;79;21857;-81
2022/06/22 07:24:54;;;;;;;2.70;2.50;;;;;;;21.21;47.02;98594.17;2206932;79;20968;-79
2022/06/22 07:27:55;;;;;;;2.85;2.55;;;;;;;21.19;48.09;98594.69;2205860;79;20988;-80
2022/06/22 07:30:56;;;;;;;4.97;2.37;;;;;;;21.26;46.00;98588.28;2205302;79;21079;-80
2022/06/22 07:33:56;;;;;;;2.45;2.12;;;;;;;21.18;46.01;98589.44;2205565;79;20952;-81
2022/06/22 07:36:56;;;;;;;2.80;2.17;;;;;;;21.27;47.37;98597.11;2205663;79;20991;-79
2022/06/22 07:39:56;;;;;;;2.55;2.17;;;;;;;21.60;47.32;98599.88;2205582;79;21014;-80
2022/06/22 07:42:57;;;;;;;3.47;2.33;;;;;;;21.87;45.46;98598.48;2205451;79;21120;-80
2022/06/22 07:45:57;;;;;;;3.35;2.40;;;;;;;21.78;44.24;98597.50;2203230;79;21051;-80
2022/06/22 07:48:59;;;;;;;4.70;2.20;;;;;;;21.82;45.73;98597.80;2226731;79;21078;-82
2022/06/22 07:51:58;;;;;;;2.10;1.90;;;;;;;21.96;45.35;98584.85;2232922;79;21078;-81
2022/06/22 07:54:59;;;;;;;5.17;2.05;;;;;;;22.18;45.67;98590.23;2233876;79;20959;-81
2022/06/22 07:57:59;;;;;;;2.10;1.77;;;;;;;22.18;44.52;98591.56;2233203;79;20995;-81
2022/06/22 08:00:59;;;;;;;4.28;2.58;;;;;;;22.06;44.06;98592.91;2232321;79;21110;-81
2022/06/22 08:04:00;;;;;;;3.52;3.00;;;;;;;22.23;43.70;98597.57;2235022;79;21304;-80
2022/06/22 08:07:00;;;;;;;5.25;2.30;;;;;;;22.27;43.54;98583.70;2233867;79;20987;-82
2022/06/22 08:10:01;;;;;;;4.37;2.60;;;;;;;22.43;43.96;98580.36;2233345;79;20998;-82
2022/06/22 08:13:01;;;;;;;2.83;2.02;;;;;;;22.86;43.18;98576.87;2233645;78;21236;-81
2022/06/22 08:16:02;;;;;;;6.62;2.10;;;;;;;22.96;42.55;98574.69;2233611;79;21982;-82
2022/06/22 08:19:02;;;;;;;2.52;1.90;;;;;;;23.15;42.14;98573.43;2233357;79;20956;-80
2022/06/22 08:22:04;;;;;;;1.62;1.30;;;;;;;23.05;37.76;98572.95;2232030;79;20947;-80
2022/06/22 08:25:03;;;;;;;1.65;1.55;;;;;;;22.88;36.04;98559.05;2232358;79;20935;-80
2022/06/22 08:28:03;;;;;;;3.08;1.85;;;;;;;22.94;35.16;98555.72;2233045;79;20951;-81
2022/06/22 08:31:04;;;;;;;2.80;1.70;;;;;;;22.79;36.13;98564.72;2232724;79;20995;-80
2022/06/22 08:34:04;;;;;;;2.37;1.40;;;;;;;22.65;36.17;98565.76;2233558;79;21002;-80
2022/06/22 08:37:06;;;;;;;3.33;1.50;;;;;;;22.71;35.52;98563.31;2231447;78;20971;-81
2022/06/22 08:40:05;;;;;;;2.47;2.15;;;;;;;22.88;35.82;98555.52;2234056;78;21003;-81
2022/06/22 08:43:05;;;;;;;4.17;2.50;;;;;;;23.03;38.67;98564.17;2234030;79;21342;-82
2022/06/22 08:46:06;;;;;;;3.45;1.67;;;;;;;23.12;39.98;98574.42;2233162;79;21033;-80
2022/06/22 08:49:06;;;;;;;7.00;2.47;;;;;;;23.34;38.87;98583.68;2211663;79;20945;-80
2022/06/22 08:52:07;;;;;;;4.67;1.80;;;;;;;23.47;37.39;98583.56;2205637;81;21046;-83
2022/06/22 08:55:08;;;;;;;1.67;1.50;;;;;;;23.43;34.66;98573.12;2205669;81;21008;-82
2022/06/22 08:58:08;;;;;;;4.62;2.02;;;;;;;23.61;34.66;98575.45;2206675;79;20996;-82
2022/06/22 09:01:09;;;;;;;4.22;2.00;;;;;;;23.71;37.47;98570.98;2205992;79;21356;-81
2022/06/22 09:04:09;;;;;;;2.87;2.17;;;;;;;23.79;37.19;98570.63;2206547;79;20971;-81
2022/06/22 09:07:09;;;;;;;2.40;1.95;;;;;;;23.75;37.47;98569.03;2206914;81;21007;-81
2022/06/22 09:10:10;;;;;;;1.87;1.35;;;;;;;23.66;38.93;98588.11;2206867;79;21027;-82
2022/06/22 09:13:10;;;;;;;2.60;1.75;;;;;;;23.64;33.86;98583.31;2206493;79;21727;-82
2022/06/22 09:16:11;;;;;;;1.85;1.60;;;;;;;23.65;32.43;98579.25;2206727;81;20972;-82
2022/06/22 09:19:11;;;;;;;2.10;1.55;;;;;;;23.60;33.44;98580.39;2207007;81;21278;-84
2022/06/22 09:22:11;;;;;;;2.70;1.47;;;;;;;23.55;34.50;98571.73;2206664;79;21018;-80
2022/06/22 09:25:12;;;;;;;2.60;1.30;;;;;;;23.51;32.84;98583.83;2206717;81;20965;-81
2022/06/22 09:28:34;;;;;;;1.82;1.45;;;;;;;23.60;32.96;98580.39;2206729;79;20960;-83
2022/06/22 09:31:18;;;;;;;1.85;1.42;;;;;;;23.80;31.53;98577.69;2190840;81;21094;-81
2022/06/22 09:34:17;;;;;;;1.67;1.50;;;;;;;23.79;32.06;98587.95;2206932;81;20953;-81
2022/06/22 09:37:17;;;;;;;6.35;2.10;;;;;;;23.66;32.30;98587.64;2206592;79;21012;-82
2022/06/22 09:40:18;;;;;;;3.15;1.60;;;;;;;23.66;33.21;98580.11;2206277;79;21039;-81
2022/06/22 09:43:18;;;;;;;6.10;1.98;;;;;;;23.83;32.93;98580.20;2207223;79;20960;-82
2022/06/22 09:46:19;;;;;;;11.70;2.30;;;;;;;23.87;32.82;98587.12;2207069;81;21344;-81
2022/06/22 09:49:20;;;;;;;2.77;1.92;;;;;;;23.75;33.72;98573.90;2227073;79;21440;-80
2022/06/22 09:52:19;;;;;;;4.65;1.80;;;;;;;23.74;33.50;98580.63;2234112;79;21384;-83
2022/06/22 09:58:38;;;;;;;1.50;1.40;;;;;;;23.65;32.74;98585.91;2234040;80;21048;-80
2022/06/22 10:01:39;;;;;;;2.72;1.92;;;;;;;23.68;31.94;98557.80;2234525;79;21041;-80
2022/06/22 10:04:39;;;;;;;2.45;1.90;;;;;;;23.63;33.28;98579.78;2234499;79;20951;-82
2022/06/22 10:07:40;;;;;;;17.02;2.15;;;;;;;23.79;33.27;98574.63;2235037;79;20963;-82
2022/06/22 10:10:40;;;;;;;3.67;1.77;;;;;;;23.85;32.47;98581.00;2235035;80;21027;-80
2022/06/22 10:13:41;;;;;;;2.70;1.50;;;;;;;23.76;32.75;98574.77;2234865;79;20932;-81
2022/06/22 10:16:41;;;;;;;2.58;1.70;;;;;;;23.85;32.47;98565.01;2235053;79;20904;-82
2022/06/22 10:19:41;;;;;;;2.75;1.50;;;;;;;23.88;32.69;98564.00;2235561;79;20962;-82
2022/06/22 10:22:42;;;;;;;8.55;1.90;;;;;;;23.89;31.62;98558.60;2234918;79;20995;-79
2022/06/22 10:25:42;;;;;;;2.08;1.92;;;;;;;23.86;32.27;98565.41;2234472;79;20959;-81
2022/06/22 10:28:43;;;;;;;3.00;1.87;;;;;;;23.86;32.14;98558.74;2233457;79;20978;-80
2022/06/22 10:31:43;;;;;;;3.33;1.57;;;;;;;23.85;32.62;98566.34;2232986;80;21046;-79
2022/06/22 10:34:44;;;;;;;4.53;1.42;;;;;;;24.18;33.03;98567.89;2233398;79;20986;-79
2022/06/22 10:37:44;;;;;;;3.77;1.77;;;;;;;24.38;32.67;98561.67;2232719;80;21002;-79
2022/06/22 10:47:22;;;;;;;6.53;1.50;;;;;;;24.64;31.43;98565.26;2231631;80;21021;-81
2022/06/22 10:50:23;;;;;;;11.20;1.90;;;;;;;24.54;31.70;98555.98;2206242;79;21365;-82
2022/06/22 10:53:23;;;;;;;2.25;1.45;;;;;;;24.44;27.86;98568.04;2207151;79;20940;-81
2022/06/22 10:56:24;;;;;;;4.00;1.30;;;;;;;24.36;28.27;98559.55;2207499;79;21200;-81
2022/06/22 10:59:24;;;;;;;1.87;1.40;;;;;;;24.27;28.76;98572.82;2208529;79;21411;-78
2022/06/22 11:02:24;;;;;;;2.22;1.50;;;;;;;24.22;28.85;98564.61;2205642;79;21074;-82
2022/06/22 11:05:24;;;;;;;1.52;1.35;;;;;;;24.32;29.42;98558.83;2206961;79;20984;-80
2022/06/22 11:08:25;;;;;;;3.72;1.65;;;;;;;24.41;29.91;98554.38;2207318;79;21351;-80
2022/06/22 11:11:25;;;;;;;1.40;1.30;;;;;;;24.57;30.17;98554.49;2207262;79;21000;-78
2022/06/22 11:14:26;;;;;;;22.37;2.42;;;;;;;24.67;28.69;98559.77;2206983;79;20929;-80
2022/06/22 11:17:26;;;;;;;9.35;2.52;;;;;;;24.58;28.52;98558.02;2207406;79;20930;-82
2022/06/22 11:20:27;;;;;;;2.70;1.15;;;;;;;24.79;29.19;98556.95;2206926;81;21328;-82
2022/06/22 11:23:27;;;;;;;2.50;0.80;;;;;;;24.77;26.28;98566.84;2207209;79;20972;-82
2022/06/22 11:32:56;;;;;;;3.95;1.40;;;;;;;24.81;25.90;98560.88;2206848;81;21016;-81
2022/06/22 11:35:56;;;;;;;2.12;1.50;;;;;;;24.83;25.56;98567.01;2206618;79;20995;-82
2022/06/22 11:38:57;;;;;;;2.37;1.30;;;;;;;24.76;26.23;98557.11;2206260;81;21410;-84
2022/06/22 11:41:57;;;;;;;3.35;1.20;;;;;;;24.96;27.08;98549.42;2206585;79;21466;-81
2022/06/22 11:48:16;;;;;;;5.20;1.40;;;;;;;25.02;26.68;98563.83;2206484;80;21039;-82
2022/06/22 11:51:17;;;;;;;1.35;1.10;;;;;;;24.96;27.11;98560.11;2205998;79;21015;-81
2022/06/22 11:54:17;;;;;;;1.35;1.25;;;;;;;24.94;26.91;98556.66;2206210;81;20936;-82
2022/06/22 11:57:17;;;;;;;3.02;1.60;;;;;;;24.96;27.23;98555.63;2206004;81;20917;-81
2022/06/22 12:00:18;;;;;;;4.70;1.52;;;;;;;25.07;28.37;98557.78;2205351;79;21300;-80
2022/06/22 12:03:18;;;;;;;5.28;1.20;;;;;;;25.12;28.24;98555.73;2205689;79;21019;-81
2022/06/22 12:06:19;;;;;;;4.17;1.60;;;;;;;25.10;27.57;98557.62;2205945;79;20992;-80
2022/06/22 12:09:19;;;;;;;2.42;1.40;;;;;;;25.01;26.84;98573.65;2205203;79;20975;-83
2022/06/22 12:12:19;;;;;;;3.10;1.40;;;;;;;24.86;26.99;98565.05;2205127;79;21062;-81
2022/06/22 12:15:20;;;;;;;1.32;1.20;;;;;;;24.72;26.85;98568.87;2205439;79;20952;-81
2022/06/22 12:18:20;;;;;;;2.47;1.30;;;;;;;24.81;26.74;98568.89;2205615;79;21388;-80
2022/06/22 12:21:21;;;;;;;2.02;1.50;;;;;;;24.88;28.62;98570.31;2205174;79;20948;-81
2022/06/22 12:24:21;;;;;;;24.15;3.52;;;;;;;25.02;28.78;98563.83;2205642;79;20972;-80
2022/06/22 12:27:21;;;;;;;6.33;1.65;;;;;;;25.15;29.34;98557.42;2205440;79;20936;-80
2022/06/22 12:30:22;;;;;;;123.40;9.98;;;;;;;25.09;28.71;98565.25;2204960;80;21451;-79
2022/06/22 12:33:22;;;;;;;4.95;1.40;;;;;;;25.09;29.39;98558.57;2204533;81;21051;-78
2022/06/22 12:36:25;;;;;;;2.85;1.27;;;;;;;25.23;29.85;98549.41;2191005;81;20976;-79
2022/06/22 12:39:25;;;;;;;5.90;1.47;;;;;;;25.38;29.25;98557.95;2203124;79;21044;-80
2022/06/22 12:42:25;;;;;;;6.35;1.47;;;;;;;25.27;29.93;98556.31;2205694;79;20941;-80
2022/06/22 12:45:26;;;;;;;3.33;1.87;;;;;;;25.27;29.09;98554.98;2205725;79;20973;-81
2022/06/22 12:48:26;;;;;;;2.75;1.67;;;;;;;25.24;29.43;98546.26;2206185;79;21034;-81
2022/06/22 12:51:27;;;;;;;2.83;1.40;;;;;;;25.26;31.04;98547.05;2206016;79;20972;-79
2022/06/22 12:54:27;;;;;;;2.08;1.42;;;;;;;25.38;30.37;98543.25;2205930;79;20983;-82
2022/06/22 12:57:28;;;;;;;5.50;1.65;;;;;;;25.34;30.21;98545.70;2206405;79;20984;-83
2022/06/22 13:00:28;;;;;;;2.98;1.80;;;;;;;25.29;29.98;98551.75;2206760;79;20932;-83
2022/06/22 13:03:28;;;;;;;1.62;1.52;;;;;;;25.19;30.41;98543.83;2207141;79;22003;-83
2022/06/22 13:06:29;;;;;;;2.75;1.75;;;;;;;25.41;30.97;98546.23;2206432;79;21016;-84
2022/06/22 13:09:29;;;;;;;5.20;1.90;;;;;;;25.79;30.32;98533.51;2205918;79;21015;-81
2022/06/22 13:12:31;;;;;;;4.87;1.72;;;;;;;25.49;31.08;98536.00;2204846;81;20976;-83
2022/06/22 13:15:31;;;;;;;4.10;1.95;;;;;;;25.04;31.05;98527.23;2205587;79;21342;-83
2022/06/22 13:18:32;;;;;;;4.22;1.70;;;;;;;25.10;31.41;98536.27;2205896;79;20976;-84
2022/06/22 13:21:32;;;;;;;2.62;1.85;;;;;;;25.29;30.68;98529.05;2206488;81;20987;-83
2022/06/22 13:24:32;;;;;;;10.15;2.00;;;;;;;25.37;31.69;98525.50;2207157;79;20959;-83
2022/06/22 13:27:33;;;;;;;6.12;2.20;;;;;;;25.34;32.11;98526.99;2207677;79;21376;-80
2022/06/22 13:30:33;;;;;;;4.97;1.50;;;;;;;25.15;32.18;98531.58;2207310;79;21023;-82
2022/06/22 13:33:34;;;;;;;1.70;1.30;;;;;;;24.86;32.49;98528.14;2207803;79;20969;-80
2022/06/22 13:36:34;;;;;;;5.80;1.95;;;;;;;25.22;32.72;98524.11;2208109;79;21026;-81
2022/06/22 13:39:34;;;;;;;4.35;1.72;;;;;;;25.28;31.38;98531.80;2206536;79;21413;-80
2022/06/22 13:42:35;;;;;;;2.75;1.55;;;;;;;24.88;32.41;98531.59;2207351;79;20988;-80
2022/06/22 13:45:35;;;;;;;3.77;1.87;;;;;;;24.54;33.15;98533.77;2206796;79;20999;-78
2022/06/22 13:48:36;;;;;;;5.35;1.90;;;;;;;24.28;34.22;98525.71;2211789;79;20991;-79
2022/06/22 13:51:43;;;;;;;4.03;1.80;;;;;;;24.10;34.31;98521.59;2235242;79;21475;-80
2022/06/22 13:54:40;;;;;;;;;;;;;;;24.19;34.21;98527.42;2238825;80;20912;-80
2022/06/22 13:57:40;;;;;;;3.50;1.35;;;;;;;24.71;32.47;98534.66;2235290;80;20117;-80
2022/06/22 14:00:40;;;;;;;4.83;1.90;;;;;;;25.10;32.94;98524.25;2235345;78;21026;-80
2022/06/22 14:03:41;;;;;;;4.65;1.75;;;;;;;25.47;31.92;98529.02;2234693;79;21975;-79
2022/06/22 14:06:41;;;;;;;2.47;1.60;;;;;;;25.65;32.02;98532.92;2233279;79;21255;-78
2022/06/22 14:09:42;;;;;;;6.42;2.00;;;;;;;25.30;32.54;98528.58;2233920;78;20935;-79
2022/06/22 14:12:42;;;;;;;3.45;1.47;;;;;;;24.82;33.14;98543.92;2234725;79;21023;-79
2022/06/22 14:15:42;;;;;;;6.85;1.90;;;;;;;25.00;33.46;98529.67;2234675;80;21390;-81
2022/06/22 14:18:44;;;;;;;3.98;1.82;;;;;;;25.36;33.53;98525.58;2234418;79;20916;-79
2022/06/22 14:21:44;;;;;;;2.42;1.77;;;;;;;25.56;32.00;98511.14;2235410;79;20904;-80
2022/06/22 14:24:45;;;;;;;6.42;2.10;;;;;;;25.82;31.57;98508.42;2234891;79;20956;-80
2022/06/22 14:27:45;;;;;;;3.17;1.90;;;;;;;25.51;32.12;98511.87;2234770;79;20998;-80
2022/06/22 14:30:46;;;;;;;3.42;1.90;;;;;;;25.61;32.66;98500.59;2234803;80;21050;-80
2022/06/22 14:33:46;;;;;;;4.10;1.90;;;;;;;25.72;32.00;98506.72;2234320;78;20999;-80